sensor_id;sensor_type;location;lat;lon;timestamp;pressure;altitude;pressure_sealevel;temperature;humidity
56330;BME280;42236;48.058;10.632;2024-03-17T00:01:24;95386.19;;;7.69;100.00
56330;BME280;42236;48.058;10.632;2024-03-17T00:04:10;95383.78;;;7.68;100.00
56330;BME280;42236;48.058;10.632;2024-03-17T00:06:56;95386.28;;;7.64;100.00
56330;BME280;42236;48.058;10.632;2024-03-17T00:09:41;95384.41;;;7.65;100.00
56330;BME280;42236;48.058;10.632;2024-03-17T00:12:27;95380.03;;;7.69;100.00
56330;BME280;42236;48.058;10.632;2024-03-17T00:15:13;95373.25;;;7.72;100.00
56330;BME280;42236;48.058;10.632;2024-03-17T00:18:00;95369.28;;;7.69;100.00
56330;BME280;42236;48.058;10.632;2024-03-17T00:20:45;95379.22;;;7.68;100.00
56330;BME280;42236;48.058;10.632;2024-03-17T00:23:31;95371.25;;;7.63;100.00
56330;BME280;42236;48.058;10.632;2024-03-17T00:26:17;95366.34;;;7.57;100.00
56330;BME280;42236;48.058;10.632;2024-03-17T00:29:04;95364.22;;;7.54;100.00
56330;BME280;42236;48.058;10.632;2024-03-17T00:31:51;95362.38;;;7.54;100.00
56330;BME280;42236;48.058;10.632;2024-03-17T00:34:37;95361.38;;;7.50;100.00
56330;BME280;42236;48.058;10.632;2024-03-17T00:37:23;95371.31;;;7.50;100.00
56330;BME280;42236;48.058;10.632;2024-03-17T00:40:08;95358.81;;;7.45;100.00
56330;BME280;42236;48.058;10.632;2024-03-17T00:42:57;95364.59;;;7.38;100.00
56330;BME280;42236;48.058;10.632;2024-03-17T00:45:42;95362.00;;;7.33;100.00
56330;BME280;42236;48.058;10.632;2024-03-17T00:48:28;95369.38;;;7.28;100.00
56330;BME280;42236;48.058;10.632;2024-03-17T00:51:13;95353.88;;;7.24;100.00
56330;BME280;42236;48.058;10.632;2024-03-17T00:53:59;95360.34;;;7.23;100.00
56330;BME280;42236;48.058;10.632;2024-03-17T00:56:45;95359.66;;;7.18;100.00
56330;BME280;42236;48.058;10.632;2024-03-17T00:59:30;95355.19;;;7.13;100.00
56330;BME280;42236;48.058;10.632;2024-03-17T01:02:16;95360.06;;;7.11;100.00
56330;BME280;42236;48.058;10.632;2024-03-17T01:05:02;95361.06;;;7.15;100.00
56330;BME280;42236;48.058;10.632;2024-03-17T01:07:50;95355.09;;;7.18;100.00
56330;BME280;42236;48.058;10.632;2024-03-17T01:10:40;95357.44;;;7.20;100.00
56330;BME280;42236;48.058;10.632;2024-03-17T01:13:26;95357.44;;;7.20;100.00
56330;BME280;42236;48.058;10.632;2024-03-17T01:16:15;95353.91;;;7.11;100.00
56330;BME280;42236;48.058;10.632;2024-03-17T01:19:01;95357.50;;;7.06;100.00
56330;BME280;42236;48.058;10.632;2024-03-17T01:21:46;95352.91;;;7.07;100.00
56330;BME280;42236;48.058;10.632;2024-03-17T01:24:35;95341.38;;;7.06;100.00
56330;BME280;42236;48.058;10.632;2024-03-17T01:27:21;95348.84;;;7.09;100.00
56330;BME280;42236;48.058;10.632;2024-03-17T01:30:07;95334.81;;;7.12;100.00
56330;BME280;42236;48.058;10.632;2024-03-17T01:32:53;95333.22;;;7.11;100.00
56330;BME280;42236;48.058;10.632;2024-03-17T01:35:39;95327.25;;;7.14;100.00
56330;BME280;42236;48.058;10.632;2024-03-17T01:38:24;95324.28;;;7.16;100.00
56330;BME280;42236;48.058;10.632;2024-03-17T01:41:10;95316.72;;;7.18;100.00
56330;BME280;42236;48.058;10.632;2024-03-17T01:43:56;95319.69;;;7.16;100.00
56330;BME280;42236;48.058;10.632;2024-03-17T01:46:41;95311.16;;;7.14;100.00
56330;BME280;42236;48.058;10.632;2024-03-17T01:49:27;95309.59;;;7.13;100.00
56330;BME280;42236;48.058;10.632;2024-03-17T01:52:14;95307.41;;;7.15;100.00
56330;BME280;42236;48.058;10.632;2024-03-17T01:55:01;95309.59;;;7.13;100.00
56330;BME280;42236;48.058;10.632;2024-03-17T01:57:50;95301.66;;;7.08;100.00
56330;BME280;42236;48.058;10.632;2024-03-17T02:00:36;95300.75;;;6.99;100.00
56330;BME280;42236;48.058;10.632;2024-03-17T02:03:23;95297.69;;;6.92;100.00
56330;BME280;42236;48.058;10.632;2024-03-17T02:06:09;95293.72;;;6.89;100.00
56330;BME280;42236;48.058;10.632;2024-03-17T02:08:57;95293.50;;;6.86;100.00
56330;BME280;42236;48.058;10.632;2024-03-17T02:11:43;95290.94;;;6.80;100.00
56330;BME280;42236;48.058;10.632;2024-03-17T02:14:29;95289.47;;;6.74;100.00
56330;BME280;42236;48.058;10.632;2024-03-17T02:17:14;95286.41;;;6.67;100.00
56330;BME280;42236;48.058;10.632;2024-03-17T02:20:00;95290.25;;;6.61;100.00
56330;BME280;42236;48.058;10.632;2024-03-17T02:22:46;95288.28;;;6.53;100.00
56330;BME280;42236;48.058;10.632;2024-03-17T02:25:31;95281.75;;;6.45;100.00
56330;BME280;42236;48.058;10.632;2024-03-17T02:28:17;95284.03;;;6.38;100.00
56330;BME280;42236;48.058;10.632;2024-03-17T02:31:03;95282.44;;;6.37;100.00
56330;BME280;42236;48.058;10.632;2024-03-17T02:33:48;95276.56;;;6.35;100.00
56330;BME280;42236;48.058;10.632;2024-03-17T02:36:34;95275.28;;;6.32;100.00
56330;BME280;42236;48.058;10.632;2024-03-17T02:39:19;95273.47;;;6.28;100.00
56330;BME280;42236;48.058;10.632;2024-03-17T02:42:17;95272.69;;;6.27;100.00
56330;BME280;42236;48.058;10.632;2024-03-17T02:45:03;95272.28;;;6.20;100.00
56330;BME280;42236;48.058;10.632;2024-03-17T02:47:48;95270.22;;;6.17;100.00
56330;BME280;42236;48.058;10.632;2024-03-17T02:50:35;95277.56;;;6.11;100.00
56330;BME280;42236;48.058;10.632;2024-03-17T02:53:21;95272.06;;;6.03;100.00
56330;BME280;42236;48.058;10.632;2024-03-17T02:56:07;95267.09;;;5.96;100.00
56330;BME280;42236;48.058;10.632;2024-03-17T02:58:52;95265.78;;;5.93;100.00
56330;BME280;42236;48.058;10.632;2024-03-17T03:01:39;95267.44;;;5.89;100.00
56330;BME280;42236;48.058;10.632;2024-03-17T03:04:26;95262.69;;;5.86;100.00
56330;BME280;42236;48.058;10.632;2024-03-17T03:07:12;95274.00;;;5.83;100.00
56330;BME280;42236;48.058;10.632;2024-03-17T03:09:58;95260.38;;;5.80;100.00
56330;BME280;42236;48.058;10.632;2024-03-17T03:12:43;95257.81;;;5.74;100.00
56330;BME280;42236;48.058;10.632;2024-03-17T03:15:31;95258.50;;;5.66;100.00
56330;BME280;42236;48.058;10.632;2024-03-17T03:18:18;95258.94;;;5.54;100.00
56330;BME280;42236;48.058;10.632;2024-03-17T03:21:04;95261.00;;;5.44;100.00
56330;BME280;42236;48.058;10.632;2024-03-17T03:23:51;95260.78;;;5.40;100.00
56330;BME280;42236;48.058;10.632;2024-03-17T03:26:37;95255.22;;;5.37;100.00
56330;BME280;42236;48.058;10.632;2024-03-17T03:29:23;95257.59;;;5.38;100.00
56330;BME280;42236;48.058;10.632;2024-03-17T03:32:09;95252.25;;;5.38;100.00
56330;BME280;42236;48.058;10.632;2024-03-17T03:34:55;95255.50;;;5.35;100.00
56330;BME280;42236;48.058;10.632;2024-03-17T03:37:41;95249.72;;;5.28;100.00
56330;BME280;42236;48.058;10.632;2024-03-17T03:40:27;95249.22;;;5.26;100.00
56330;BME280;42236;48.058;10.632;2024-03-17T03:43:12;95251.63;;;5.27;100.00
56330;BME280;42236;48.058;10.632;2024-03-17T03:46:00;95248.94;;;5.27;100.00
56330;BME280;42236;48.058;10.632;2024-03-17T03:48:45;95249.44;;;5.29;100.00
56330;BME280;42236;48.058;10.632;2024-03-17T03:51:31;95250.25;;;5.30;100.00
56330;BME280;42236;48.058;10.632;2024-03-17T03:54:17;95245.97;;;5.29;100.00
56330;BME280;42236;48.058;10.632;2024-03-17T03:57:02;95249.72;;;5.28;100.00
56330;BME280;42236;48.058;10.632;2024-03-17T03:59:48;95246.88;;;5.24;100.00
56330;BME280;42236;48.058;10.632;2024-03-17T04:02:34;95250.41;;;5.20;100.00
56330;BME280;42236;48.058;10.632;2024-03-17T04:05:19;95248.28;;;5.17;100.00
56330;BME280;42236;48.058;10.632;2024-03-17T04:08:05;95244.63;;;5.12;100.00
56330;BME280;42236;48.058;10.632;2024-03-17T04:10:51;95239.84;;;5.09;100.00
56330;BME280;42236;48.058;10.632;2024-03-17T04:13:37;95237.47;;;5.08;100.00
56330;BME280;42236;48.058;10.632;2024-03-17T04:16:22;95247.38;;;5.07;100.00
56330;BME280;42236;48.058;10.632;2024-03-17T04:19:08;95247.56;;;5.11;100.00
56330;BME280;42236;48.058;10.632;2024-03-17T04:21:54;95246.47;;;5.12;100.00
56330;BME280;42236;48.058;10.632;2024-03-17T04:24:40;95252.34;;;5.14;100.00
56330;BME280;42236;48.058;10.632;2024-03-17T04:27:26;95247.78;;;5.14;100.00
56330;BME280;42236;48.058;10.632;2024-03-17T04:30:12;95243.25;;;5.15;100.00
56330;BME280;42236;48.058;10.632;2024-03-17T04:32:57;95241.38;;;5.16;100.00
56330;BME280;42236;48.058;10.632;2024-03-17T04:35:43;95245.63;;;5.17;100.00
56330;BME280;42236;48.058;10.632;2024-03-17T04:38:29;95247.22;;;5.18;100.00
56330;BME280;42236;48.058;10.632;2024-03-17T04:41:16;95244.47;;;5.23;100.00
56330;BME280;42236;48.058;10.632;2024-03-17T04:44:02;95252.41;;;5.28;100.00
56330;BME280;42236;48.058;10.632;2024-03-17T04:46:53;95250.75;;;5.32;100.00
56330;BME280;42236;48.058;10.632;2024-03-17T04:49:40;95245.69;;;5.30;100.00
56330;BME280;42236;48.058;10.632;2024-03-17T04:52:26;95249.44;;;5.29;100.00
56330;BME280;42236;48.058;10.632;2024-03-17T04:55:12;95243.78;;;5.31;100.00
56330;BME280;42236;48.058;10.632;2024-03-17T04:57:58;95246.47;;;5.31;100.00
56330;BME280;42236;48.058;10.632;2024-03-17T05:00:43;95251.81;;;5.31;100.00
56330;BME280;42236;48.058;10.632;2024-03-17T05:03:29;95251.03;;;5.30;100.00
56330;BME280;42236;48.058;10.632;2024-03-17T05:06:15;95251.81;;;5.31;100.00
56330;BME280;42236;48.058;10.632;2024-03-17T05:09:00;95253.44;;;5.32;100.00
56330;BME280;42236;48.058;10.632;2024-03-17T05:11:46;95251.75;;;5.36;100.00
56330;BME280;42236;48.058;10.632;2024-03-17T05:14:33;95262.34;;;5.41;100.00
56330;BME280;42236;48.058;10.632;2024-03-17T05:17:18;95259.69;;;5.41;100.00
56330;BME280;42236;48.058;10.632;2024-03-17T05:20:04;95259.91;;;5.45;100.00
56330;BME280;42236;48.058;10.632;2024-03-17T05:22:51;95260.69;;;5.45;100.00
56330;BME280;42236;48.058;10.632;2024-03-17T05:25:36;95265.84;;;5.42;100.00
56330;BME280;42236;48.058;10.632;2024-03-17T05:28:23;95262.66;;;5.40;100.00
56330;BME280;42236;48.058;10.632;2024-03-17T05:31:10;95246.31;;;5.41;100.00
56330;BME280;42236;48.058;10.632;2024-03-17T05:33:55;95261.78;;;5.44;100.00
56330;BME280;42236;48.058;10.632;2024-03-17T05:36:41;95258.59;;;5.42;100.00
56330;BME280;42236;48.058;10.632;2024-03-17T05:39:27;95254.91;;;5.38;100.00
56330;BME280;42236;48.058;10.632;2024-03-17T05:42:12;95255.44;;;5.40;100.00
56330;BME280;42236;48.058;10.632;2024-03-17T05:44:58;95259.69;;;5.41;100.00
56330;BME280;42236;48.058;10.632;2024-03-17T05:47:44;95250.06;;;5.40;100.00
56330;BME280;42236;48.058;10.632;2024-03-17T05:50:29;95266.34;;;5.44;100.00
56330;BME280;42236;48.058;10.632;2024-03-17T05:53:15;95254.28;;;5.46;100.00
56330;BME280;42236;48.058;10.632;2024-03-17T05:56:02;95253.69;;;5.49;100.00
56330;BME280;42236;48.058;10.632;2024-03-17T05:58:48;95262.22;;;5.51;100.00
56330;BME280;42236;48.058;10.632;2024-03-17T06:01:34;95255.25;;;5.50;100.00
56330;BME280;42236;48.058;10.632;2024-03-17T06:04:21;95260.09;;;5.48;100.00
56330;BME280;42236;48.058;10.632;2024-03-17T06:07:08;95254.75;;;5.48;100.00
56330;BME280;42236;48.058;10.632;2024-03-17T06:09:53;95259.22;;;5.53;100.00
56330;BME280;42236;48.058;10.632;2024-03-17T06:12:39;95255.69;;;5.57;100.00
56330;BME280;42236;48.058;10.632;2024-03-17T06:15:25;95254.53;;;5.64;100.00
56330;BME280;42236;48.058;10.632;2024-03-17T06:18:12;95257.28;;;5.72;100.00
56330;BME280;42236;48.058;10.632;2024-03-17T06:20:59;95256.22;;;5.73;100.00
56330;BME280;42236;48.058;10.632;2024-03-17T06:23:45;95247.88;;;5.75;100.00
56330;BME280;42236;48.058;10.632;2024-03-17T06:26:31;95246.03;;;5.75;100.00
56330;BME280;42236;48.058;10.632;2024-03-17T06:29:18;95243.84;;;5.77;100.00
56330;BME280;42236;48.058;10.632;2024-03-17T06:32:04;95244.03;;;5.81;100.00
56330;BME280;42236;48.058;10.632;2024-03-17T06:34:50;95243.66;;;5.88;100.00
56330;BME280;42236;48.058;10.632;2024-03-17T06:37:36;95245.47;;;5.92;100.00
56330;BME280;42236;48.058;10.632;2024-03-17T06:40:21;95248.75;;;6.03;100.00
56330;BME280;42236;48.058;10.632;2024-03-17T06:43:07;95256.31;;;6.15;100.00
56330;BME280;42236;48.058;10.632;2024-03-17T06:45:56;95253.44;;;6.25;100.00
56330;BME280;42236;48.058;10.632;2024-03-17T06:48:43;95254.34;;;6.34;100.00
56330;BME280;42236;48.058;10.632;2024-03-17T06:51:29;95255.22;;;6.44;100.00
56330;BME280;42236;48.058;10.632;2024-03-17T06:54:14;95255.63;;;6.51;100.00
56330;BME280;42236;48.058;10.632;2024-03-17T06:57:00;95262.97;;;6.59;100.00
56330;BME280;42236;48.058;10.632;2024-03-17T06:59:46;95258.00;;;6.66;100.00
56330;BME280;42236;48.058;10.632;2024-03-17T07:02:33;95257.09;;;6.71;100.00
56330;BME280;42236;48.058;10.632;2024-03-17T07:05:19;95251.00;;;6.79;100.00
56330;BME280;42236;48.058;10.632;2024-03-17T07:08:05;95252.72;;;6.89;100.00
56330;BME280;42236;48.058;10.632;2024-03-17T07:11:01;95253.56;;;6.98;100.00
56330;BME280;42236;48.058;10.632;2024-03-17T07:13:48;95245.00;;;7.10;100.00
56330;BME280;42236;48.058;10.632;2024-03-17T07:16:35;95258.66;;;7.22;100.00
56330;BME280;42236;48.058;10.632;2024-03-17T07:19:21;95254.66;;;7.33;100.00
56330;BME280;42236;48.058;10.632;2024-03-17T07:22:07;95262.16;;;7.45;100.00
56330;BME280;42236;48.058;10.632;2024-03-17T07:24:53;95257.81;;;7.58;100.00
56330;BME280;42236;48.058;10.632;2024-03-17T07:27:46;95251.13;;;7.69;100.00
56330;BME280;42236;48.058;10.632;2024-03-17T07:30:31;95257.63;;;7.77;100.00
56330;BME280;42236;48.058;10.632;2024-03-17T07:33:17;95261.19;;;7.86;100.00
56330;BME280;42236;48.058;10.632;2024-03-17T07:36:03;95259.50;;;7.99;100.00
56330;BME280;42236;48.058;10.632;2024-03-17T07:38:50;95256.41;;;8.14;100.00
56330;BME280;42236;48.058;10.632;2024-03-17T07:41:36;95245.41;;;8.24;100.00
56330;BME280;42236;48.058;10.632;2024-03-17T07:44:22;95252.88;;;8.36;100.00
56330;BME280;42236;48.058;10.632;2024-03-17T07:47:08;95256.59;;;8.49;100.00
56330;BME280;42236;48.058;10.632;2024-03-17T07:49:53;95249.16;;;8.54;100.00
56330;BME280;42236;48.058;10.632;2024-03-17T07:52:39;95251.88;;;8.63;100.00
56330;BME280;42236;48.058;10.632;2024-03-17T07:55:25;95252.22;;;8.70;100.00
56330;BME280;42236;48.058;10.632;2024-03-17T07:58:11;95243.22;;;8.75;100.00
56330;BME280;42236;48.058;10.632;2024-03-17T08:00:57;95250.66;;;8.78;100.00
56330;BME280;42236;48.058;10.632;2024-03-17T08:03:46;95247.03;;;8.83;100.00
56330;BME280;42236;48.058;10.632;2024-03-17T08:06:39;95248.13;;;8.90;100.00
56330;BME280;42236;48.058;10.632;2024-03-17T08:09:26;95244.34;;;8.91;100.00
56330;BME280;42236;48.058;10.632;2024-03-17T08:12:11;95237.84;;;8.92;100.00
56330;BME280;42236;48.058;10.632;2024-03-17T08:14:57;95243.56;;;9.00;100.00
56330;BME280;42236;48.058;10.632;2024-03-17T08:17:43;95237.88;;;9.10;100.00
56330;BME280;42236;48.058;10.632;2024-03-17T08:20:29;95231.88;;;9.22;100.00
56330;BME280;42236;48.058;10.632;2024-03-17T08:23:15;95239.94;;;9.30;100.00
56330;BME280;42236;48.058;10.632;2024-03-17T08:26:01;95234.53;;;9.39;100.00
56330;BME280;42236;48.058;10.632;2024-03-17T08:28:46;95224.56;;;9.48;100.00
56330;BME280;42236;48.058;10.632;2024-03-17T08:31:32;95226.13;;;9.58;100.00
56330;BME280;42236;48.058;10.632;2024-03-17T08:34:18;95218.84;;;9.67;100.00
56330;BME280;42236;48.058;10.632;2024-03-17T08:37:04;95213.09;;;9.77;100.00
56330;BME280;42236;48.058;10.632;2024-03-17T08:39:49;95212.28;;;9.86;100.00
56330;BME280;42236;48.058;10.632;2024-03-17T08:42:35;95210.53;;;9.90;100.00
56330;BME280;42236;48.058;10.632;2024-03-17T08:45:21;95201.66;;;9.98;100.00
56330;BME280;42236;48.058;10.632;2024-03-17T08:48:07;95205.25;;;10.11;100.00
56330;BME280;42236;48.058;10.632;2024-03-17T08:50:53;95204.38;;;10.28;100.00
56330;BME280;42236;48.058;10.632;2024-03-17T08:53:39;95210.38;;;10.42;100.00
56330;BME280;42236;48.058;10.632;2024-03-17T08:56:25;95214.53;;;10.60;100.00
56330;BME280;42236;48.058;10.632;2024-03-17T08:59:10;95204.31;;;10.75;100.00
56330;BME280;42236;48.058;10.632;2024-03-17T09:01:57;95204.53;;;10.91;100.00
56330;BME280;42236;48.058;10.632;2024-03-17T09:04:43;95209.06;;;10.99;100.00
56330;BME280;42236;48.058;10.632;2024-03-17T09:07:28;95210.31;;;11.01;100.00
56330;BME280;42236;48.058;10.632;2024-03-17T09:10:14;95218.22;;;11.06;100.00
56330;BME280;42236;48.058;10.632;2024-03-17T09:13:00;95211.22;;;11.14;100.00
56330;BME280;42236;48.058;10.632;2024-03-17T09:18:37;95210.84;;;11.37;100.00
56330;BME280;42236;48.058;10.632;2024-03-17T09:21:23;95206.63;;;11.48;100.00
56330;BME280;42236;48.058;10.632;2024-03-17T09:24:09;95200.25;;;11.52;100.00
56330;BME280;42236;48.058;10.632;2024-03-17T09:26:54;95195.41;;;11.58;100.00
56330;BME280;42236;48.058;10.632;2024-03-17T09:29:40;95196.56;;;11.69;100.00
56330;BME280;42236;48.058;10.632;2024-03-17T09:32:26;95192.00;;;11.82;100.00
56330;BME280;42236;48.058;10.632;2024-03-17T09:35:11;95203.78;;;11.99;100.00
56330;BME280;42236;48.058;10.632;2024-03-17T09:37:57;95190.38;;;12.02;100.00
56330;BME280;42236;48.058;10.632;2024-03-17T09:40:46;95189.56;;;11.89;99.04
56330;BME280;42236;48.058;10.632;2024-03-17T09:43:34;95185.44;;;11.83;100.00
56330;BME280;42236;48.058;10.632;2024-03-17T09:46:22;95181.78;;;11.67;100.00
56330;BME280;42236;48.058;10.632;2024-03-17T09:49:14;95187.97;;;11.55;98.48
56330;BME280;42236;48.058;10.632;2024-03-17T09:52:01;95179.72;;;11.51;99.05
56330;BME280;42236;48.058;10.632;2024-03-17T09:55:16;95174.22;;;11.48;96.60
56330;BME280;42236;48.058;10.632;2024-03-17T09:58:10;95184.72;;;11.62;99.05
56330;BME280;42236;48.058;10.632;2024-03-17T10:01:00;95184.31;;;11.72;98.14
56330;BME280;42236;48.058;10.632;2024-03-17T10:03:53;95185.91;;;11.85;96.72
56330;BME280;42236;48.058;10.632;2024-03-17T10:06:45;95174.28;;;12.06;97.99
56330;BME280;42236;48.058;10.632;2024-03-17T10:09:34;95175.63;;;12.24;96.90
56330;BME280;42236;48.058;10.632;2024-03-17T10:12:29;95174.06;;;12.23;91.99
56330;BME280;42236;48.058;10.632;2024-03-17T10:15:15;95175.84;;;12.19;93.86
56330;BME280;42236;48.058;10.632;2024-03-17T10:18:00;95177.31;;;12.16;94.26
56330;BME280;42236;48.058;10.632;2024-03-17T10:20:46;95178.31;;;12.12;94.25
56330;BME280;42236;48.058;10.632;2024-03-17T10:23:32;95171.56;;;12.18;93.28
56330;BME280;42236;48.058;10.632;2024-03-17T10:26:17;95176.53;;;12.28;92.69
56330;BME280;42236;48.058;10.632;2024-03-17T10:29:13;95175.53;;;12.33;91.69
56330;BME280;42236;48.058;10.632;2024-03-17T10:32:03;95176.06;;;12.26;92.32
56330;BME280;42236;48.058;10.632;2024-03-17T10:34:49;95174.03;;;12.11;90.87
56330;BME280;42236;48.058;10.632;2024-03-17T10:37:34;95163.00;;;12.16;91.10
56330;BME280;42236;48.058;10.632;2024-03-17T10:40:20;95162.22;;;12.28;90.17
56330;BME280;42236;48.058;10.632;2024-03-17T10:43:07;95168.88;;;12.30;89.57
56330;BME280;42236;48.058;10.632;2024-03-17T10:45:53;95170.66;;;12.26;88.12
56330;BME280;42236;48.058;10.632;2024-03-17T10:48:41;95175.06;;;12.43;88.97
56330;BME280;42236;48.058;10.632;2024-03-17T10:51:28;95165.59;;;12.62;88.34
56330;BME280;42236;48.058;10.632;2024-03-17T10:54:24;95157.09;;;12.75;85.37
56330;BME280;42236;48.058;10.632;2024-03-17T11:00:22;95163.94;;;12.97;85.97
56330;BME280;42236;48.058;10.632;2024-03-17T11:03:08;95161.44;;;13.05;84.94
56330;BME280;42236;48.058;10.632;2024-03-17T11:05:57;95164.38;;;12.99;84.60
56330;BME280;42236;48.058;10.632;2024-03-17T11:08:44;95154.25;;;12.84;83.95
56330;BME280;42236;48.058;10.632;2024-03-17T11:11:36;95162.97;;;12.77;79.30
56330;BME280;42236;48.058;10.632;2024-03-17T11:14:27;95164.34;;;12.71;84.61
56330;BME280;42236;48.058;10.632;2024-03-17T11:17:19;95156.47;;;12.66;83.19
56330;BME280;42236;48.058;10.632;2024-03-17T11:20:10;95161.06;;;12.66;82.87
56330;BME280;42236;48.058;10.632;2024-03-17T11:22:59;95165.69;;;12.65;82.72
56330;BME280;42236;48.058;10.632;2024-03-17T11:25:51;95169.63;;;12.68;79.17
56330;BME280;42236;48.058;10.632;2024-03-17T11:31:36;95169.72;;;12.84;77.63
56330;BME280;42236;48.058;10.632;2024-03-17T11:34:36;95167.69;;;12.80;78.27
56330;BME280;42236;48.058;10.632;2024-03-17T11:37:41;95164.53;;;12.91;79.50
56330;BME280;42236;48.058;10.632;2024-03-17T11:40:27;95170.41;;;12.93;81.52
56330;BME280;42236;48.058;10.632;2024-03-17T11:43:17;95164.97;;;12.93;80.90
56330;BME280;42236;48.058;10.632;2024-03-17T11:46:03;95157.97;;;12.92;81.82
56330;BME280;42236;48.058;10.632;2024-03-17T11:48:49;95159.31;;;12.98;81.15
56330;BME280;42236;48.058;10.632;2024-03-17T11:51:38;95157.84;;;13.00;80.91
56330;BME280;42236;48.058;10.632;2024-03-17T11:54:36;95146.56;;;12.98;77.48
56330;BME280;42236;48.058;10.632;2024-03-17T11:57:23;95140.56;;;13.05;79.40
56330;BME280;42236;48.058;10.632;2024-03-17T12:00:19;95131.50;;;13.13;77.67
56330;BME280;42236;48.058;10.632;2024-03-17T12:03:10;95126.81;;;13.26;79.18
56330;BME280;42236;48.058;10.632;2024-03-17T12:05:56;95124.00;;;13.35;77.83
56330;BME280;42236;48.058;10.632;2024-03-17T12:08:41;95128.06;;;13.29;77.32
56330;BME280;42236;48.058;10.632;2024-03-17T12:11:27;95123.28;;;13.38;77.68
56330;BME280;42236;48.058;10.632;2024-03-17T12:14:17;95123.03;;;13.43;76.82
56330;BME280;42236;48.058;10.632;2024-03-17T12:17:07;95116.50;;;13.60;77.33
56330;BME280;42236;48.058;10.632;2024-03-17T12:19:53;95116.63;;;13.79;77.92
56330;BME280;42236;48.058;10.632;2024-03-17T12:22:41;95104.56;;;13.93;76.89
56330;BME280;42236;48.058;10.632;2024-03-17T12:25:27;95111.94;;;13.92;76.57
56330;BME280;42236;48.058;10.632;2024-03-17T12:28:16;95109.19;;;13.76;76.66
56330;BME280;42236;48.058;10.632;2024-03-17T12:31:02;95100.09;;;13.69;77.82
56330;BME280;42236;48.058;10.632;2024-03-17T12:33:48;95109.97;;;13.77;77.68
56330;BME280;42236;48.058;10.632;2024-03-17T12:36:34;95105.41;;;13.65;77.49
56330;BME280;42236;48.058;10.632;2024-03-17T12:39:21;95109.00;;;13.69;77.69
56330;BME280;42236;48.058;10.632;2024-03-17T12:42:09;95112.44;;;13.66;77.29
56330;BME280;42236;48.058;10.632;2024-03-17T12:44:57;95106.13;;;13.62;76.34
56330;BME280;42236;48.058;10.632;2024-03-17T12:47:47;95111.09;;;13.60;74.03
56330;BME280;42236;48.058;10.632;2024-03-17T12:50:33;95103.50;;;13.65;73.86
56330;BME280;42236;48.058;10.632;2024-03-17T12:53:19;95102.88;;;13.72;74.46
56330;BME280;42236;48.058;10.632;2024-03-17T12:56:06;95100.81;;;13.65;73.88
56330;BME280;42236;48.058;10.632;2024-03-17T12:59:10;95087.31;;;13.69;73.52
56330;BME280;42236;48.058;10.632;2024-03-17T13:02:15;95088.19;;;13.89;73.41
56330;BME280;42236;48.058;10.632;2024-03-17T13:05:07;95094.25;;;13.98;71.35
56330;BME280;42236;48.058;10.632;2024-03-17T13:07:54;95093.19;;;14.19;71.95
56330;BME280;42236;48.058;10.632;2024-03-17T13:10:42;95091.59;;;14.18;70.80
56330;BME280;42236;48.058;10.632;2024-03-17T13:13:28;95089.53;;;14.11;70.31
56330;BME280;42236;48.058;10.632;2024-03-17T13:16:13;95094.25;;;13.98;70.54
56330;BME280;42236;48.058;10.632;2024-03-17T13:18:59;95091.19;;;14.00;71.34
56330;BME280;42236;48.058;10.632;2024-03-17T13:21:45;95083.94;;;14.04;71.01
56330;BME280;42236;48.058;10.632;2024-03-17T13:24:32;95088.00;;;14.29;69.92
56330;BME280;42236;48.058;10.632;2024-03-17T13:27:18;95085.88;;;14.55;69.71
56330;BME280;42236;48.058;10.632;2024-03-17T13:30:05;95084.44;;;14.61;69.69
56330;BME280;42236;48.058;10.632;2024-03-17T13:32:51;95079.91;;;14.49;68.56
56330;BME280;42236;48.058;10.632;2024-03-17T13:35:42;95075.19;;;14.62;68.39
56330;BME280;42236;48.058;10.632;2024-03-17T13:38:28;95069.78;;;14.81;68.46
56330;BME280;42236;48.058;10.632;2024-03-17T13:41:14;95079.63;;;14.70;67.54
56330;BME280;42236;48.058;10.632;2024-03-17T13:43:59;95078.34;;;14.48;66.74
56330;BME280;42236;48.058;10.632;2024-03-17T13:46:45;95076.25;;;14.25;67.98
56330;BME280;42236;48.058;10.632;2024-03-17T13:49:31;95070.44;;;14.07;68.50
56330;BME280;42236;48.058;10.632;2024-03-17T13:52:17;95071.66;;;14.10;68.60
56330;BME280;42236;48.058;10.632;2024-03-17T13:55:04;95072.00;;;14.08;69.32
56330;BME280;42236;48.058;10.632;2024-03-17T13:57:54;95065.53;;;13.97;68.96
56330;BME280;42236;48.058;10.632;2024-03-17T14:00:40;95061.69;;;13.98;69.17
56330;BME280;42236;48.058;10.632;2024-03-17T14:03:27;95060.19;;;14.17;69.18
56330;BME280;42236;48.058;10.632;2024-03-17T14:06:13;95058.34;;;14.21;69.36
56330;BME280;42236;48.058;10.632;2024-03-17T14:08:59;95064.13;;;14.03;69.39
56330;BME280;42236;48.058;10.632;2024-03-17T14:11:45;95055.22;;;13.71;69.81
56330;BME280;42236;48.058;10.632;2024-03-17T14:14:31;95059.06;;;13.54;70.30
56330;BME280;42236;48.058;10.632;2024-03-17T14:17:26;95058.38;;;13.41;70.50
56330;BME280;42236;48.058;10.632;2024-03-17T14:20:13;95059.56;;;13.28;71.82
56330;BME280;42236;48.058;10.632;2024-03-17T14:22:59;95056.72;;;13.24;71.95
56330;BME280;42236;48.058;10.632;2024-03-17T14:25:45;95052.69;;;13.18;72.20
56330;BME280;42236;48.058;10.632;2024-03-17T14:28:30;95047.72;;;13.20;73.32
56330;BME280;42236;48.058;10.632;2024-03-17T14:31:17;95053.09;;;13.33;73.35
56330;BME280;42236;48.058;10.632;2024-03-17T14:34:05;95039.88;;;13.31;72.65
56330;BME280;42236;48.058;10.632;2024-03-17T14:36:51;95047.81;;;13.24;72.64
56330;BME280;42236;48.058;10.632;2024-03-17T14:39:46;95042.03;;;13.26;73.44
56330;BME280;42236;48.058;10.632;2024-03-17T14:42:51;95033.59;;;13.27;73.47